sensor_id;sensor_type;location;lat;lon;timestamp;pressure;altitude;pressure_sealevel;temperature;humidity
77702;BME280;66868;42.708;23.404;2023-08-17T00:00:16;95281.16;;;22.94;76.24
77702;BME280;66868;42.708;23.404;2023-08-17T00:02:43;95283.59;;;22.96;76.12
77702;BME280;66868;42.708;23.404;2023-08-17T00:05:08;95288.28;;;22.92;75.96
77702;BME280;66868;42.708;23.404;2023-08-17T00:07:34;95281.81;;;22.88;75.69
77702;BME280;66868;42.708;23.404;2023-08-17T00:10:14;95264.03;;;22.77;75.77
77702;BME280;66868;42.708;23.404;2023-08-17T00:12:50;95248.53;;;22.61;75.59
77702;BME280;66868;42.708;23.404;2023-08-17T00:15:18;95276.94;;;22.85;75.82
77702;BME280;66868;42.708;23.404;2023-08-17T00:17:43;95257.91;;;22.70;75.75
77702;BME280;66868;42.708;23.404;2023-08-17T00:20:09;95268.88;;;22.80;75.77
77702;BME280;66868;42.708;23.404;2023-08-17T00:22:35;95253.69;;;22.61;75.71
77702;BME280;66868;42.708;23.404;2023-08-17T00:25:01;95279.22;;;22.80;75.75
77702;BME280;66868;42.708;23.404;2023-08-17T00:27:27;95241.56;;;22.53;75.82
77702;BME280;66868;42.708;23.404;2023-08-17T00:29:52;95275.19;;;22.77;75.75
77702;BME280;66868;42.708;23.404;2023-08-17T00:32:18;95203.94;;;22.26;75.73
77702;BME280;66868;42.708;23.404;2023-08-17T00:34:43;95283.25;;;22.74;76.01
77702;BME280;66868;42.708;23.404;2023-08-17T00:37:08;95275.81;;;22.71;76.22
77702;BME280;66868;42.708;23.404;2023-08-17T00:39:34;95273.84;;;22.65;76.31
77702;BME280;66868;42.708;23.404;2023-08-17T00:41:59;95278.34;;;22.63;76.21
77702;BME280;66868;42.708;23.404;2023-08-17T00:44:25;95276.91;;;22.61;75.87
77702;BME280;66868;42.708;23.404;2023-08-17T00:46:50;95269.47;;;22.58;76.30
77702;BME280;66868;42.708;23.404;2023-08-17T00:49:16;95269.31;;;22.51;76.04
77702;BME280;66868;42.708;23.404;2023-08-17T00:51:41;95271.56;;;22.46;76.39
77702;BME280;66868;42.708;23.404;2023-08-17T00:54:07;95256.22;;;22.28;76.47
77702;BME280;66868;42.708;23.404;2023-08-17T00:56:33;95275.25;;;22.35;76.46
77702;BME280;66868;42.708;23.404;2023-08-17T00:58:58;95265.06;;;22.26;76.69
77702;BME280;66868;42.708;23.404;2023-08-17T01:01:24;95267.78;;;22.24;76.78
77702;BME280;66868;42.708;23.404;2023-08-17T01:03:52;95253.56;;;22.12;76.76
77702;BME280;66868;42.708;23.404;2023-08-17T01:06:18;95256.75;;;22.06;76.65
77702;BME280;66868;42.708;23.404;2023-08-17T01:08:44;95252.06;;;22.01;76.77
77702;BME280;66868;42.708;23.404;2023-08-17T01:11:34;95271.25;;;21.99;76.99
77702;BME280;66868;42.708;23.404;2023-08-17T01:14:19;95269.16;;;22.02;76.81
77702;BME280;66868;42.708;23.404;2023-08-17T01:16:53;95270.31;;;22.00;76.69
77702;BME280;66868;42.708;23.404;2023-08-17T01:19:25;95249.91;;;21.89;76.94
77702;BME280;66868;42.708;23.404;2023-08-17T01:22:00;95272.53;;;21.95;77.09
77702;BME280;66868;42.708;23.404;2023-08-17T01:24:26;95262.41;;;21.76;77.40
77702;BME280;66868;42.708;23.404;2023-08-17T01:26:53;95273.69;;;21.75;77.77
77702;BME280;66868;42.708;23.404;2023-08-17T01:29:18;95265.81;;;21.76;77.79
77702;BME280;66868;42.708;23.404;2023-08-17T01:32:03;95260.44;;;21.70;77.71
77702;BME280;66868;42.708;23.404;2023-08-17T01:34:33;95238.19;;;21.60;77.38
77702;BME280;66868;42.708;23.404;2023-08-17T01:37:02;95261.72;;;21.66;77.50
77702;BME280;66868;42.708;23.404;2023-08-17T01:39:35;95266.53;;;21.60;77.95
77702;BME280;66868;42.708;23.404;2023-08-17T01:42:03;95245.84;;;21.44;77.94
77702;BME280;66868;42.708;23.404;2023-08-17T01:44:30;95271.03;;;21.58;78.20
77702;BME280;66868;42.708;23.404;2023-08-17T01:46:55;95271.03;;;21.58;78.12
77702;BME280;66868;42.708;23.404;2023-08-17T01:49:21;95266.16;;;21.55;78.08
77702;BME280;66868;42.708;23.404;2023-08-17T01:51:46;95253.84;;;21.41;78.08
77702;BME280;66868;42.708;23.404;2023-08-17T01:54:11;95263.56;;;21.47;77.97
77702;BME280;66868;42.708;23.404;2023-08-17T01:56:37;95252.34;;;21.31;78.57
77702;BME280;66868;42.708;23.404;2023-08-17T01:59:02;95254.63;;;21.34;78.12
77702;BME280;66868;42.708;23.404;2023-08-17T02:01:28;95247.09;;;21.40;78.06
77702;BME280;66868;42.708;23.404;2023-08-17T02:03:53;95260.03;;;21.48;77.55
77702;BME280;66868;42.708;23.404;2023-08-17T02:06:18;95263.56;;;21.47;77.31
77702;BME280;66868;42.708;23.404;2023-08-17T02:08:45;95263.53;;;21.39;77.48
77702;BME280;66868;42.708;23.404;2023-08-17T02:11:11;95244.41;;;21.24;77.83
77702;BME280;66868;42.708;23.404;2023-08-17T02:13:36;95247.59;;;21.18;77.97
77702;BME280;66868;42.708;23.404;2023-08-17T02:16:06;95242.75;;;21.15;77.87
77702;BME280;66868;42.708;23.404;2023-08-17T02:18:31;95262.53;;;21.14;77.84
77702;BME280;66868;42.708;23.404;2023-08-17T02:20:58;95245.56;;;21.04;78.42
77702;BME280;66868;42.708;23.404;2023-08-17T02:23:24;95251.22;;;21.07;78.16
77702;BME280;66868;42.708;23.404;2023-08-17T02:25:49;95240.81;;;20.99;78.49
77702;BME280;66868;42.708;23.404;2023-08-17T02:28:15;95248.41;;;21.01;78.58
77702;BME280;66868;42.708;23.404;2023-08-17T02:30:41;95249.09;;;21.03;78.46
77702;BME280;66868;42.708;23.404;2023-08-17T02:33:06;95235.63;;;20.91;78.49
77702;BME280;66868;42.708;23.404;2023-08-17T02:35:31;95256.94;;;21.01;78.57
77702;BME280;66868;42.708;23.404;2023-08-17T02:37:57;95237.03;;;20.86;78.54
77702;BME280;66868;42.708;23.404;2023-08-17T02:40:22;95254.91;;;20.87;78.79
77702;BME280;66868;42.708;23.404;2023-08-17T02:42:47;95248.31;;;20.85;79.05
77702;BME280;66868;42.708;23.404;2023-08-17T02:45:13;95253.19;;;20.96;78.59
77702;BME280;66868;42.708;23.404;2023-08-17T02:47:38;95245.09;;;20.91;78.02
77702;BME280;66868;42.708;23.404;2023-08-17T02:50:04;95251.56;;;20.95;78.12
77702;BME280;66868;42.708;23.404;2023-08-17T02:52:30;95239.47;;;20.87;78.00
77702;BME280;66868;42.708;23.404;2023-08-17T02:54:55;95250.25;;;20.91;78.05
77702;BME280;66868;42.708;23.404;2023-08-17T02:57:20;95249.75;;;20.87;77.95
77702;BME280;66868;42.708;23.404;2023-08-17T02:59:46;95243.38;;;20.73;78.05
77702;BME280;66868;42.708;23.404;2023-08-17T03:02:11;95245.31;;;20.71;78.11
77702;BME280;66868;42.708;23.404;2023-08-17T03:04:37;95238.97;;;20.66;77.78
77702;BME280;66868;42.708;23.404;2023-08-17T03:07:02;95237.44;;;20.55;78.00
77702;BME280;66868;42.708;23.404;2023-08-17T03:09:27;95206.84;;;20.35;78.21
77702;BME280;66868;42.708;23.404;2023-08-17T03:11:53;95243.31;;;20.48;78.23
77702;BME280;66868;42.708;23.404;2023-08-17T03:14:18;95243.44;;;20.46;78.58
77702;BME280;66868;42.708;23.404;2023-08-17T03:16:44;95241.44;;;20.40;78.68
77702;BME280;66868;42.708;23.404;2023-08-17T03:19:09;95256.50;;;20.35;78.70
77702;BME280;66868;42.708;23.404;2023-08-17T03:21:39;95224.28;;;20.13;78.86
77702;BME280;66868;42.708;23.404;2023-08-17T03:24:13;95234.94;;;20.18;78.88
77702;BME280;66868;42.708;23.404;2023-08-17T03:26:38;95241.09;;;20.25;78.90
77702;BME280;66868;42.708;23.404;2023-08-17T03:29:17;95248.28;;;20.32;78.81
77702;BME280;66868;42.708;23.404;2023-08-17T03:31:43;95246.41;;;20.24;78.91
77702;BME280;66868;42.708;23.404;2023-08-17T03:34:08;95232.81;;;20.14;78.98
77702;BME280;66868;42.708;23.404;2023-08-17T03:36:33;95246.84;;;20.19;79.08
77702;BME280;66868;42.708;23.404;2023-08-17T03:38:59;95242.97;;;20.15;78.81
77702;BME280;66868;42.708;23.404;2023-08-17T03:41:24;95253.63;;;20.20;78.56
77702;BME280;66868;42.708;23.404;2023-08-17T03:43:50;95246.69;;;20.21;78.79
77702;BME280;66868;42.708;23.404;2023-08-17T03:46:16;95249.19;;;20.13;78.47
77702;BME280;66868;42.708;23.404;2023-08-17T03:48:41;95232.72;;;20.06;78.48
77702;BME280;66868;42.708;23.404;2023-08-17T03:51:07;95202.94;;;19.85;78.38
77702;BME280;66868;42.708;23.404;2023-08-17T03:53:32;95246.03;;;20.19;78.06
77702;BME280;66868;42.708;23.404;2023-08-17T03:55:58;95255.06;;;20.33;77.27
77702;BME280;66868;42.708;23.404;2023-08-17T03:58:23;95251.81;;;20.31;77.39
77702;BME280;66868;42.708;23.404;2023-08-17T04:00:52;95254.50;;;20.29;77.25
77702;BME280;66868;42.708;23.404;2023-08-17T04:03:19;95258.44;;;20.33;77.13
77702;BME280;66868;42.708;23.404;2023-08-17T04:05:45;95261.28;;;20.30;76.92
77702;BME280;66868;42.708;23.404;2023-08-17T04:08:10;95247.00;;;20.18;77.07
77702;BME280;66868;42.708;23.404;2023-08-17T04:10:36;95263.03;;;20.29;77.16
77702;BME280;66868;42.708;23.404;2023-08-17T04:13:01;95276.56;;;20.32;77.17
77702;BME280;66868;42.708;23.404;2023-08-17T04:15:27;95259.53;;;20.21;77.20
77702;BME280;66868;42.708;23.404;2023-08-17T04:17:52;95275.22;;;20.27;77.81
77702;BME280;66868;42.708;23.404;2023-08-17T04:20:18;95271.84;;;20.27;77.75
77702;BME280;66868;42.708;23.404;2023-08-17T04:22:44;95265.22;;;20.24;77.68
77702;BME280;66868;42.708;23.404;2023-08-17T04:25:09;95271.97;;;20.25;77.75
77702;BME280;66868;42.708;23.404;2023-08-17T04:27:35;95254.91;;;20.07;78.03
77702;BME280;66868;42.708;23.404;2023-08-17T04:30:01;95269.19;;;20.19;77.91
77702;BME280;66868;42.708;23.404;2023-08-17T04:32:26;95260.53;;;20.20;77.96
77702;BME280;66868;42.708;23.404;2023-08-17T04:34:52;95272.66;;;20.27;77.47
77702;BME280;66868;42.708;23.404;2023-08-17T04:37:17;95269.94;;;20.29;77.57
77702;BME280;66868;42.708;23.404;2023-08-17T04:39:42;95272.25;;;20.32;77.25
77702;BME280;66868;42.708;23.404;2023-08-17T04:42:09;95249.63;;;20.26;76.92
77702;BME280;66868;42.708;23.404;2023-08-17T04:44:35;95262.22;;;20.29;77.08
77702;BME280;66868;42.708;23.404;2023-08-17T04:47:00;95267.91;;;20.33;77.18
77702;BME280;66868;42.708;23.404;2023-08-17T04:49:25;95270.72;;;20.39;76.98
77702;BME280;66868;42.708;23.404;2023-08-17T04:51:51;95244.22;;;20.29;76.83
77702;BME280;66868;42.708;23.404;2023-08-17T04:54:17;95260.13;;;20.42;76.63
77702;BME280;66868;42.708;23.404;2023-08-17T04:56:42;95272.56;;;20.47;76.78
77702;BME280;66868;42.708;23.404;2023-08-17T04:59:08;95271.31;;;20.51;76.38
77702;BME280;66868;42.708;23.404;2023-08-17T05:01:34;95267.34;;;20.56;76.56
77702;BME280;66868;42.708;23.404;2023-08-17T05:04:00;95266.59;;;20.64;76.60
77702;BME280;66868;42.708;23.404;2023-08-17T05:06:28;95258.44;;;20.68;76.73
77702;BME280;66868;42.708;23.404;2023-08-17T05:08:53;95261.38;;;20.73;76.77
77702;BME280;66868;42.708;23.404;2023-08-17T05:11:19;95265.28;;;20.78;77.54
77702;BME280;66868;42.708;23.404;2023-08-17T05:13:44;95243.31;;;20.65;77.54
77702;BME280;66868;42.708;23.404;2023-08-17T05:16:12;95254.41;;;20.84;78.10
77702;BME280;66868;42.708;23.404;2023-08-17T05:18:37;95250.56;;;20.88;78.08
77702;BME280;66868;42.708;23.404;2023-08-17T05:21:03;95244.47;;;20.89;77.23
77702;BME280;66868;42.708;23.404;2023-08-17T05:23:28;95261.00;;;21.04;77.03
77702;BME280;66868;42.708;23.404;2023-08-17T05:25:53;95257.44;;;21.05;77.07
77702;BME280;66868;42.708;23.404;2023-08-17T05:28:19;95260.63;;;21.17;76.94
77702;BME280;66868;42.708;23.404;2023-08-17T05:30:48;95270.84;;;21.26;76.96
77702;BME280;66868;42.708;23.404;2023-08-17T05:33:14;95268.63;;;21.31;77.28
77702;BME280;66868;42.708;23.404;2023-08-17T05:35:39;95272.06;;;21.40;77.40
77702;BME280;66868;42.708;23.404;2023-08-17T05:38:04;95270.34;;;21.48;77.25
77702;BME280;66868;42.708;23.404;2023-08-17T05:40:33;95274.56;;;21.57;77.23
77702;BME280;66868;42.708;23.404;2023-08-17T05:43:01;95271.22;;;21.65;76.91
77702;BME280;66868;42.708;23.404;2023-08-17T05:45:27;95244.28;;;21.59;76.47
77702;BME280;66868;42.708;23.404;2023-08-17T05:47:53;95267.56;;;21.76;76.58
77702;BME280;66868;42.708;23.404;2023-08-17T05:50:18;95278.88;;;21.83;75.74
77702;BME280;66868;42.708;23.404;2023-08-17T05:52:44;95268.91;;;21.88;76.04
77702;BME280;66868;42.708;23.404;2023-08-17T05:55:09;95258.13;;;21.92;75.40
77702;BME280;66868;42.708;23.404;2023-08-17T05:57:35;95261.28;;;22.04;75.52
77702;BME280;66868;42.708;23.404;2023-08-17T06:00:03;95268.72;;;22.15;75.54
77702;BME280;66868;42.708;23.404;2023-08-17T06:02:29;95278.09;;;22.24;76.14
77702;BME280;66868;42.708;23.404;2023-08-17T06:04:54;95268.63;;;22.33;76.55
77702;BME280;66868;42.708;23.404;2023-08-17T06:07:19;95273.81;;;22.49;77.15
77702;BME280;66868;42.708;23.404;2023-08-17T06:09:45;95268.50;;;22.67;77.03
77702;BME280;66868;42.708;23.404;2023-08-17T06:12:10;95275.28;;;22.68;77.01
77702;BME280;66868;42.708;23.404;2023-08-17T06:14:36;95270.50;;;22.73;76.84
77702;BME280;66868;42.708;23.404;2023-08-17T06:17:02;95269.22;;;22.85;76.40
77702;BME280;66868;42.708;23.404;2023-08-17T06:19:27;95273.41;;;22.94;75.74
77702;BME280;66868;42.708;23.404;2023-08-17T06:21:52;95261.97;;;22.97;75.22
77702;BME280;66868;42.708;23.404;2023-08-17T06:24:18;95276.63;;;23.04;75.35
77702;BME280;66868;42.708;23.404;2023-08-17T06:26:44;95270.03;;;23.10;74.93
77702;BME280;66868;42.708;23.404;2023-08-17T06:29:10;95266.81;;;23.16;74.64
77702;BME280;66868;42.708;23.404;2023-08-17T06:31:36;95270.81;;;23.26;73.95
77702;BME280;66868;42.708;23.404;2023-08-17T06:34:01;95254.50;;;23.26;73.39
77702;BME280;66868;42.708;23.404;2023-08-17T06:36:31;95277.59;;;23.44;72.94
77702;BME280;66868;42.708;23.404;2023-08-17T06:38:57;95278.56;;;23.51;72.91
77702;BME280;66868;42.708;23.404;2023-08-17T06:41:22;95268.22;;;23.51;72.77
77702;BME280;66868;42.708;23.404;2023-08-17T06:43:50;95285.31;;;23.68;72.31
77702;BME280;66868;42.708;23.404;2023-08-17T06:46:15;95277.84;;;23.73;72.22
77702;BME280;66868;42.708;23.404;2023-08-17T06:48:40;95281.06;;;23.83;72.33
77702;BME280;66868;42.708;23.404;2023-08-17T06:51:06;95284.94;;;23.95;71.28
77702;BME280;66868;42.708;23.404;2023-08-17T06:53:31;95277.94;;;23.96;71.28
77702;BME280;66868;42.708;23.404;2023-08-17T06:55:57;95276.94;;;24.05;71.00
77702;BME280;66868;42.708;23.404;2023-08-17T06:58:22;95271.94;;;24.03;71.02
77702;BME280;66868;42.708;23.404;2023-08-17T07:00:48;95273.84;;;24.09;70.54
77702;BME280;66868;42.708;23.404;2023-08-17T07:03:13;95279.34;;;24.23;70.50
77702;BME280;66868;42.708;23.404;2023-08-17T07:05:38;95274.94;;;24.23;70.45
77702;BME280;66868;42.708;23.404;2023-08-17T07:08:04;95275.53;;;24.33;70.06
77702;BME280;66868;42.708;23.404;2023-08-17T07:10:30;95272.81;;;24.35;69.92
77702;BME280;66868;42.708;23.404;2023-08-17T07:12:55;95282.13;;;24.44;69.91
77702;BME280;66868;42.708;23.404;2023-08-17T07:15:20;95274.75;;;24.55;68.36
77702;BME280;66868;42.708;23.404;2023-08-17T07:17:46;95260.41;;;24.53;68.01
77702;BME280;66868;42.708;23.404;2023-08-17T07:20:11;95274.97;;;24.77;65.46
77702;BME280;66868;42.708;23.404;2023-08-17T07:22:37;95267.00;;;24.86;64.80
77702;BME280;66868;42.708;23.404;2023-08-17T07:25:02;95274.88;;;24.93;64.57
77702;BME280;66868;42.708;23.404;2023-08-17T07:27:29;95275.50;;;24.95;64.64
77702;BME280;66868;42.708;23.404;2023-08-17T07:29:54;95270.34;;;24.95;63.64
77702;BME280;66868;42.708;23.404;2023-08-17T07:32:19;95262.03;;;24.99;62.56
77702;BME280;66868;42.708;23.404;2023-08-17T07:34:46;95281.94;;;25.22;60.35
77702;BME280;66868;42.708;23.404;2023-08-17T07:37:11;95279.78;;;25.25;61.63
77702;BME280;66868;42.708;23.404;2023-08-17T07:39:37;95278.94;;;25.33;60.08
77702;BME280;66868;42.708;23.404;2023-08-17T07:42:02;95278.72;;;25.34;60.07
77702;BME280;66868;42.708;23.404;2023-08-17T07:44:28;95280.19;;;25.37;60.25
77702;BME280;66868;42.708;23.404;2023-08-17T07:46:56;95272.03;;;25.40;60.38
77702;BME280;66868;42.708;23.404;2023-08-17T07:49:22;95275.88;;;25.44;60.58
77702;BME280;66868;42.708;23.404;2023-08-17T07:51:48;95272.75;;;25.57;60.57
77702;BME280;66868;42.708;23.404;2023-08-17T07:54:13;95281.25;;;25.65;60.24
77702;BME280;66868;42.708;23.404;2023-08-17T07:56:39;95267.91;;;25.68;59.73
77702;BME280;66868;42.708;23.404;2023-08-17T07:59:04;95276.22;;;25.78;59.22
77702;BME280;66868;42.708;23.404;2023-08-17T08:01:29;95238.28;;;25.63;57.99
77702;BME280;66868;42.708;23.404;2023-08-17T08:03:55;95278.56;;;25.88;58.11
77702;BME280;66868;42.708;23.404;2023-08-17T08:06:20;95235.69;;;25.77;57.56
77702;BME280;66868;42.708;23.404;2023-08-17T08:08:46;95253.97;;;25.99;57.40
77702;BME280;66868;42.708;23.404;2023-08-17T08:11:11;95268.06;;;26.11;56.32
77702;BME280;66868;42.708;23.404;2023-08-17T08:13:37;95261.78;;;26.20;56.77
77702;BME280;66868;42.708;23.404;2023-08-17T08:16:02;95257.50;;;26.27;56.26
77702;BME280;66868;42.708;23.404;2023-08-17T08:18:28;95248.72;;;26.28;56.31
77702;BME280;66868;42.708;23.404;2023-08-17T08:20:53;95248.19;;;26.32;56.47
77702;BME280;66868;42.708;23.404;2023-08-17T08:23:19;95252.91;;;26.44;57.40
77702;BME280;66868;42.708;23.404;2023-08-17T08:25:44;95252.09;;;26.43;59.87
77702;BME280;66868;42.708;23.404;2023-08-17T08:28:09;95251.81;;;26.53;56.80
77702;BME280;66868;42.708;23.404;2023-08-17T08:30:35;95253.13;;;26.63;57.33
77702;BME280;66868;42.708;23.404;2023-08-17T08:33:01;95253.25;;;26.76;55.55
77702;BME280;66868;42.708;23.404;2023-08-17T08:35:27;95238.00;;;26.73;55.00
77702;BME280;66868;42.708;23.404;2023-08-17T08:37:53;95254.47;;;26.80;54.50
77702;BME280;66868;42.708;23.404;2023-08-17T08:40:27;95243.44;;;26.78;55.15
77702;BME280;66868;42.708;23.404;2023-08-17T08:42:52;95252.59;;;26.89;55.03
77702;BME280;66868;42.708;23.404;2023-08-17T08:45:18;95248.19;;;26.90;55.32
77702;BME280;66868;42.708;23.404;2023-08-17T08:47:44;95233.59;;;26.89;54.54
77702;BME280;66868;42.708;23.404;2023-08-17T08:50:11;95220.59;;;26.89;54.43
77702;BME280;66868;42.708;23.404;2023-08-17T08:53:02;95248.03;;;27.19;51.86
77702;BME280;66868;42.708;23.404;2023-08-17T08:55:34;95254.16;;;27.33;50.37
77702;BME280;66868;42.708;23.404;2023-08-17T08:58:02;95204.59;;;27.13;50.78
77702;BME280;66868;42.708;23.404;2023-08-17T09:00:29;95224.91;;;27.31;50.36
77702;BME280;66868;42.708;23.404;2023-08-17T09:02:55;95226.19;;;27.41;50.08
77702;BME280;66868;42.708;23.404;2023-08-17T09:05:22;95245.56;;;27.60;48.98
77702;BME280;66868;42.708;23.404;2023-08-17T09:07:52;95229.94;;;27.60;49.42
77702;BME280;66868;42.708;23.404;2023-08-17T09:10:17;95231.50;;;27.54;49.88
77702;BME280;66868;42.708;23.404;2023-08-17T09:12:46;95228.00;;;27.68;50.22
77702;BME280;66868;42.708;23.404;2023-08-17T09:15:15;95212.38;;;27.75;49.40
77702;BME280;66868;42.708;23.404;2023-08-17T09:17:40;95215.66;;;27.84;50.09
77702;BME280;66868;42.708;23.404;2023-08-17T09:20:06;95215.72;;;27.97;49.23
77702;BME280;66868;42.708;23.404;2023-08-17T09:22:43;95218.72;;;28.07;49.47
77702;BME280;66868;42.708;23.404;2023-08-17T09:25:09;95209.19;;;28.14;50.22
77702;BME280;66868;42.708;23.404;2023-08-17T09:27:37;95212.81;;;28.26;48.85
77702;BME280;66868;42.708;23.404;2023-08-17T09:30:04;95208.25;;;28.28;47.78
77702;BME280;66868;42.708;23.404;2023-08-17T09:32:33;95213.25;;;28.36;48.12
77702;BME280;66868;42.708;23.404;2023-08-17T09:35:02;95207.06;;;28.50;47.69
77702;BME280;66868;42.708;23.404;2023-08-17T09:37:29;95201.69;;;28.59;46.67
77702;BME280;66868;42.708;23.404;2023-08-17T09:39:55;95195.88;;;28.57;44.89
77702;BME280;66868;42.708;23.404;2023-08-17T09:42:21;95211.53;;;28.70;43.37
77702;BME280;66868;42.708;23.404;2023-08-17T09:44:48;95189.72;;;28.71;45.22
77702;BME280;66868;42.708;23.404;2023-08-17T09:47:14;95203.16;;;28.87;45.29
77702;BME280;66868;42.708;23.404;2023-08-17T09:49:39;95191.13;;;28.93;44.25
77702;BME280;66868;42.708;23.404;2023-08-17T09:52:05;95179.06;;;28.92;45.29
77702;BME280;66868;42.708;23.404;2023-08-17T09:54:31;95179.06;;;28.92;44.86
77702;BME280;66868;42.708;23.404;2023-08-17T09:56:58;95183.91;;;29.08;44.11
77702;BME280;66868;42.708;23.404;2023-08-17T09:59:23;95184.47;;;29.10;44.41
77702;BME280;66868;42.708;23.404;2023-08-17T10:01:50;95181.50;;;29.13;44.68
77702;BME280;66868;42.708;23.404;2023-08-17T10:04:21;95183.88;;;29.21;45.25
77702;BME280;66868;42.708;23.404;2023-08-17T10:06:58;95192.28;;;29.36;46.81
77702;BME280;66868;42.708;23.404;2023-08-17T10:09:25;95169.44;;;29.25;45.11
77702;BME280;66868;42.708;23.404;2023-08-17T10:11:57;95176.44;;;29.38;45.72
77702;BME280;66868;42.708;23.404;2023-08-17T10:14:28;95178.22;;;29.51;43.52
77702;BME280;66868;42.708;23.404;2023-08-17T10:17:02;95168.16;;;29.61;42.87
77702;BME280;66868;42.708;23.404;2023-08-17T10:19:50;95174.16;;;29.68;44.01
77702;BME280;66868;42.708;23.404;2023-08-17T10:22:34;95183.94;;;29.85;42.06
77702;BME280;66868;42.708;23.404;2023-08-17T10:25:03;95175.28;;;29.98;42.85
77702;BME280;66868;42.708;23.404;2023-08-17T10:27:32;95180.25;;;30.06;42.08
77702;BME280;66868;42.708;23.404;2023-08-17T10:29:57;95162.16;;;30.11;43.75
77702;BME280;66868;42.708;23.404;2023-08-17T10:32:24;95171.53;;;30.25;44.03
77702;BME280;66868;42.708;23.404;2023-08-17T10:34:51;95178.47;;;30.38;42.68
77702;BME280;66868;42.708;23.404;2023-08-17T10:37:18;95171.44;;;30.45;43.24
77702;BME280;66868;42.708;23.404;2023-08-17T10:39:50;95176.63;;;30.52;43.39
77702;BME280;66868;42.708;23.404;2023-08-17T10:42:30;95182.34;;;30.67;43.02
77702;BME280;66868;42.708;23.404;2023-08-17T10:44:57;95172.06;;;30.72;42.34
77702;BME280;66868;42.708;23.404;2023-08-17T10:47:28;95182.41;;;30.85;41.15
77702;BME280;66868;42.708;23.404;2023-08-17T10:49:58;95171.91;;;30.92;39.09
77702;BME280;66868;42.708;23.404;2023-08-17T10:52:26;95169.44;;;30.97;40.24
77702;BME280;66868;42.708;23.404;2023-08-17T10:54:53;95176.22;;;31.11;40.90
77702;BME280;66868;42.708;23.404;2023-08-17T10:57:32;95161.47;;;31.17;40.13
77702;BME280;66868;42.708;23.404;2023-08-17T11:00:23;95164.38;;;31.27;39.46
77702;BME280;66868;42.708;23.404;2023-08-17T11:03:00;95140.66;;;31.22;40.44
77702;BME280;66868;42.708;23.404;2023-08-17T11:05:38;95161.00;;;31.44;41.53
77702;BME280;66868;42.708;23.404;2023-08-17T11:08:05;95160.47;;;31.54;41.23
77702;BME280;66868;42.708;23.404;2023-08-17T11:10:31;95160.22;;;31.62;39.94
77702;BME280;66868;42.708;23.404;2023-08-17T11:12:57;95153.81;;;31.76;42.94
77702;BME280;66868;42.708;23.404;2023-08-17T11:15:35;95160.22;;;31.80;42.13
77702;BME280;66868;42.708;23.404;2023-08-17T11:18:07;95151.34;;;31.81;42.87
77702;BME280;66868;42.708;23.404;2023-08-17T11:20:33;95156.03;;;31.91;41.93
77702;BME280;66868;42.708;23.404;2023-08-17T11:22:59;95145.47;;;31.97;41.59
77702;BME280;66868;42.708;23.404;2023-08-17T11:25:26;95138.34;;;32.05;37.86
77702;BME280;66868;42.708;23.404;2023-08-17T11:27:52;95145.72;;;32.26;39.11
77702;BME280;66868;42.708;23.404;2023-08-17T11:30:17;95144.53;;;32.40;37.89
77702;BME280;66868;42.708;23.404;2023-08-17T11:32:43;95151.06;;;32.61;37.66
77702;BME280;66868;42.708;23.404;2023-08-17T11:35:08;95145.88;;;32.72;37.97
77702;BME280;66868;42.708;23.404;2023-08-17T11:37:34;95126.84;;;32.77;38.35
77702;BME280;66868;42.708;23.404;2023-08-17T11:39:59;95147.72;;;33.07;37.45
77702;BME280;66868;42.708;23.404;2023-08-17T11:42:25;95131.06;;;33.13;37.07
77702;BME280;66868;42.708;23.404;2023-08-17T11:44:50;95143.72;;;33.39;36.54
77702;BME280;66868;42.708;23.404;2023-08-17T11:47:16;95133.44;;;33.49;34.41
77702;BME280;66868;42.708;23.404;2023-08-17T11:49:41;95135.03;;;33.73;36.91
77702;BME280;66868;42.708;23.404;2023-08-17T11:52:09;95127.78;;;33.92;35.94
77702;BME280;66868;42.708;23.404;2023-08-17T11:54:40;95133.88;;;34.38;35.55
77702;BME280;66868;42.708;23.404;2023-08-17T11:57:05;95099.69;;;34.54;35.34
77702;BME280;66868;42.708;23.404;2023-08-17T11:59:31;95137.91;;;35.24;34.95
77702;BME280;66868;42.708;23.404;2023-08-17T12:01:58;95134.25;;;35.85;33.47
77702;BME280;66868;42.708;23.404;2023-08-17T12:04:24;95140.84;;;36.09;32.50
77702;BME280;66868;42.708;23.404;2023-08-17T12:06:49;95120.94;;;36.18;32.69
77702;BME280;66868;42.708;23.404;2023-08-17T12:09:15;95122.78;;;35.96;32.73
77702;BME280;66868;42.708;23.404;2023-08-17T12:11:40;95135.19;;;36.22;32.38
77702;BME280;66868;42.708;23.404;2023-08-17T12:14:10;95136.03;;;37.18;32.41
77702;BME280;66868;42.708;23.404;2023-08-17T12:16:45;95139.63;;;38.01;31.14
77702;BME280;66868;42.708;23.404;2023-08-17T12:19:11;95142.44;;;38.77;30.39
77702;BME280;66868;42.708;23.404;2023-08-17T12:21:37;95150.38;;;39.33;28.02
77702;BME280;66868;42.708;23.404;2023-08-17T12:24:04;95134.69;;;39.47;28.67
77702;BME280;66868;42.708;23.404;2023-08-17T12:26:29;95126.78;;;39.37;28.64
77702;BME280;66868;42.708;23.404;2023-08-17T12:28:57;95144.19;;;40.32;28.10
77702;BME280;66868;42.708;23.404;2023-08-17T12:31:23;95146.50;;;41.40;27.33
77702;BME280;66868;42.708;23.404;2023-08-17T12:33:49;95147.34;;;42.50;25.38
77702;BME280;66868;42.708;23.404;2023-08-17T12:36:15;95137.38;;;42.74;25.14
77702;BME280;66868;42.708;23.404;2023-08-17T12:38:40;95144.38;;;41.90;25.77
77702;BME280;66868;42.708;23.404;2023-08-17T12:41:10;95153.25;;;40.99;27.00
77702;BME280;66868;42.708;23.404;2023-08-17T12:43:37;95123.00;;;40.17;27.77
77702;BME280;66868;42.708;23.404;2023-08-17T12:46:02;95136.75;;;39.65;28.07
77702;BME280;66868;42.708;23.404;2023-08-17T12:48:28;95134.53;;;38.93;29.41